createdAt,value
2019-03-09T00:00:17.721Z,4.80
2019-03-09T00:01:06.933Z,4.92
2019-03-09T00:01:44.257Z,4.70
2019-03-09T00:02:17.739Z,4.70
2019-03-09T00:02:51.213Z,4.50
2019-03-09T00:03:24.700Z,4.95
2019-03-09T00:03:58.160Z,4.85
2019-03-09T00:04:31.647Z,4.87
2019-03-09T00:05:05.386Z,4.87
2019-03-09T00:05:38.917Z,5.08
2019-03-09T00:06:13.567Z,4.53
2019-03-09T00:06:47.269Z,4.78
2019-03-09T00:07:20.776Z,4.75
2019-03-09T00:07:54.241Z,5.67
2019-03-09T00:08:27.709Z,4.70
2019-03-09T00:09:01.185Z,5.10
2019-03-09T00:09:34.584Z,4.85
2019-03-09T00:10:08.158Z,4.78
2019-03-09T00:10:41.655Z,4.55
2019-03-09T00:11:15.865Z,5.12
2019-03-09T00:11:49.326Z,5.03
2019-03-09T00:12:22.884Z,4.60
2019-03-09T00:12:56.373Z,4.12
2019-03-09T00:13:30.081Z,4.53
2019-03-09T00:14:03.557Z,4.10
2019-03-09T00:14:37.382Z,5.00
2019-03-09T00:15:10.809Z,5.47
2019-03-09T00:15:44.670Z,4.90
2019-03-09T00:16:18.206Z,5.40
2019-03-09T00:16:52.160Z,5.65
2019-03-09T00:17:25.621Z,5.70
2019-03-09T00:17:59.472Z,4.90
2019-03-09T00:18:52.118Z,4.95
2019-03-09T00:19:25.611Z,5.40
2019-03-09T00:19:59.107Z,6.55
2019-03-09T00:20:32.596Z,5.30
2019-03-09T00:21:06.113Z,5.17
2019-03-09T00:21:39.586Z,5.67
2019-03-09T00:22:12.977Z,4.78
2019-03-09T00:22:49.932Z,6.30
2019-03-09T00:23:42.573Z,4.62
2019-03-09T00:24:47.083Z,5.25
2019-03-09T00:25:28.019Z,5.10
2019-03-09T00:26:26.420Z,4.97
2019-03-09T00:27:03.976Z,5.47
2019-03-09T00:27:45.298Z,5.67
2019-03-09T00:28:27.015Z,5.28
2019-03-09T00:29:15.165Z,5.72
2019-03-09T00:30:06.389Z,5.28
2019-03-09T00:30:44.492Z,6.22
2019-03-09T00:31:25.495Z,5.40
2019-03-09T00:32:02.577Z,6.90
2019-03-09T00:32:36.132Z,6.65
2019-03-09T00:33:09.662Z,6.50
2019-03-09T00:33:43.103Z,6.65
2019-03-09T00:34:16.629Z,6.30
2019-03-09T00:34:50.090Z,6.15
2019-03-09T00:35:23.560Z,5.42
2019-03-09T00:35:57.048Z,6.80
2019-03-09T00:36:30.582Z,6.40
2019-03-09T00:37:04.211Z,6.08
2019-03-09T00:37:37.744Z,6.00
2019-03-09T00:38:11.134Z,5.95
2019-03-09T00:38:44.572Z,7.80
2019-03-09T00:39:17.974Z,7.03
2019-03-09T00:39:51.436Z,7.80
2019-03-09T00:40:24.905Z,6.55
2019-03-09T00:40:58.503Z,7.58
2019-03-09T00:41:31.980Z,6.90
2019-03-09T00:42:05.509Z,6.97
2019-03-09T00:42:39.060Z,7.10
2019-03-09T00:43:12.521Z,6.55
2019-03-09T00:43:45.922Z,7.35
2019-03-09T00:44:19.318Z,7.30
2019-03-09T00:44:52.804Z,7.22
2019-03-09T00:45:26.281Z,7.45
2019-03-09T00:46:00.074Z,6.62
2019-03-09T00:46:33.571Z,7.42
2019-03-09T00:47:07.102Z,7.50
2019-03-09T00:47:40.556Z,7.12
2019-03-09T00:48:13.954Z,6.62
2019-03-09T00:48:47.409Z,7.12
2019-03-09T00:49:21.038Z,6.58
2019-03-09T00:49:54.490Z,6.62
2019-03-09T00:50:28.021Z,7.20
2019-03-09T00:51:01.504Z,6.90
2019-03-09T00:51:35.001Z,6.87
2019-03-09T00:52:08.464Z,7.47
2019-03-09T00:52:41.933Z,6.15
2019-03-09T00:53:15.315Z,6.17
2019-03-09T00:53:48.769Z,6.75
2019-03-09T00:54:22.255Z,6.80
2019-03-09T00:54:55.733Z,6.50
2019-03-09T00:55:29.668Z,6.35
2019-03-09T00:56:03.160Z,7.35
2019-03-09T00:56:36.913Z,7.62
2019-03-09T00:57:29.501Z,6.80
2019-03-09T00:58:02.936Z,6.40
2019-03-09T00:58:36.332Z,6.87
2019-03-09T00:59:09.802Z,7.42
2019-03-09T00:59:43.285Z,6.58
2019-03-09T01:00:17.932Z,7.10
2019-03-09T01:00:51.401Z,6.87
2019-03-09T01:01:24.878Z,6.95
2019-03-09T01:01:58.397Z,6.95
2019-03-09T01:02:31.875Z,7.00
2019-03-09T01:03:05.344Z,6.90
2019-03-09T01:03:38.805Z,7.00
2019-03-09T01:04:12.338Z,6.92
2019-03-09T01:04:45.790Z,6.72
2019-03-09T01:05:19.250Z,7.55
2019-03-09T01:05:52.795Z,6.92
2019-03-09T01:06:26.271Z,7.45
2019-03-09T01:06:59.716Z,7.55
2019-03-09T01:07:33.201Z,6.08
2019-03-09T01:08:06.676Z,7.08
2019-03-09T01:08:40.135Z,6.53
2019-03-09T01:09:13.584Z,6.25
2019-03-09T01:09:47.043Z,6.17
2019-03-09T01:10:20.827Z,6.85
2019-03-09T01:10:54.390Z,7.78
2019-03-09T01:11:27.912Z,7.00
2019-03-09T01:12:01.430Z,7.60
2019-03-09T01:12:35.076Z,6.20
2019-03-09T01:13:08.613Z,6.72
2019-03-09T01:13:42.061Z,6.65
2019-03-09T01:14:15.444Z,7.03
2019-03-09T01:14:48.953Z,6.67
2019-03-09T01:15:22.608Z,6.33
2019-03-09T01:15:56.005Z,6.65
2019-03-09T01:16:29.491Z,7.10
2019-03-09T01:17:02.952Z,6.40
2019-03-09T01:17:36.460Z,6.70
2019-03-09T01:18:10.137Z,6.37
2019-03-09T01:18:43.622Z,6.65
2019-03-09T01:19:17.073Z,6.30
2019-03-09T01:19:50.740Z,6.83
2019-03-09T01:20:24.210Z,6.50
2019-03-09T01:20:57.734Z,6.60
2019-03-09T01:21:31.263Z,6.22
2019-03-09T01:22:04.727Z,6.45
2019-03-09T01:22:38.466Z,6.53
2019-03-09T01:23:11.849Z,6.58
2019-03-09T01:23:45.323Z,6.92
2019-03-09T01:24:18.722Z,6.05
2019-03-09T01:24:52.182Z,7.28
2019-03-09T01:25:25.657Z,6.58
2019-03-09T01:25:59.146Z,6.12
2019-03-09T01:26:32.624Z,7.42
2019-03-09T01:27:06.089Z,5.92
2019-03-09T01:27:39.540Z,6.72
2019-03-09T01:28:13.190Z,6.50
2019-03-09T01:28:46.674Z,6.00
2019-03-09T01:29:20.181Z,6.92
2019-03-09T01:29:53.815Z,6.62
2019-03-09T01:30:27.257Z,6.72
2019-03-09T01:31:00.745Z,6.50
2019-03-09T01:31:34.236Z,6.92
2019-03-09T01:32:07.704Z,6.53
2019-03-09T01:32:41.233Z,7.40
2019-03-09T01:33:14.706Z,7.17
2019-03-09T01:33:48.160Z,5.87
2019-03-09T01:34:21.639Z,6.42
2019-03-09T01:34:55.085Z,6.45
2019-03-09T01:35:28.537Z,6.50
2019-03-09T01:36:02.002Z,6.70
2019-03-09T01:36:36.324Z,7.00
2019-03-09T01:37:09.827Z,7.17
2019-03-09T01:37:43.274Z,6.30
2019-03-09T01:38:16.757Z,6.10
2019-03-09T01:38:50.236Z,6.47
2019-03-09T01:39:23.721Z,6.53
2019-03-09T01:39:57.198Z,6.85
2019-03-09T01:40:30.720Z,6.28
2019-03-09T01:41:04.172Z,6.40
2019-03-09T01:41:37.645Z,5.92
2019-03-09T01:42:11.318Z,6.22
2019-03-09T01:42:44.848Z,5.90
2019-03-09T01:43:18.306Z,6.53
2019-03-09T01:43:51.752Z,6.05
2019-03-09T01:44:25.233Z,6.20
2019-03-09T01:44:58.695Z,5.90
2019-03-09T01:45:32.169Z,6.85
2019-03-09T01:46:05.632Z,6.85
2019-03-09T01:46:39.157Z,6.30
2019-03-09T01:47:12.621Z,6.40
2019-03-09T01:47:46.113Z,6.92
2019-03-09T01:48:19.600Z,6.10
2019-03-09T01:48:53.072Z,7.20
2019-03-09T01:49:26.485Z,5.83
2019-03-09T01:49:59.864Z,6.70
2019-03-09T01:50:33.315Z,6.40
2019-03-09T01:51:06.976Z,6.33
2019-03-09T01:51:40.461Z,5.97
2019-03-09T01:52:14.002Z,6.12
2019-03-09T01:52:47.474Z,6.03
2019-03-09T01:53:20.877Z,6.17
2019-03-09T01:53:54.362Z,6.67
2019-03-09T01:54:27.890Z,6.85
2019-03-09T01:55:01.347Z,5.95
2019-03-09T01:55:35.133Z,7.10
2019-03-09T01:56:08.612Z,6.75
2019-03-09T01:56:42.109Z,7.05
2019-03-09T01:57:15.704Z,6.50
2019-03-09T01:57:49.263Z,6.35
2019-03-09T01:58:22.728Z,6.97
2019-03-09T01:58:56.219Z,6.28
2019-03-09T01:59:29.710Z,7.28
2019-03-09T02:00:03.289Z,5.97
2019-03-09T02:00:36.757Z,5.85
2019-03-09T02:01:10.225Z,6.12
2019-03-09T02:01:43.750Z,5.85
2019-03-09T02:02:17.144Z,5.87
2019-03-09T02:02:50.530Z,6.40
2019-03-09T02:03:23.980Z,5.30
2019-03-09T02:03:57.457Z,6.40
2019-03-09T02:04:30.928Z,5.97
2019-03-09T02:05:04.687Z,6.67
2019-03-09T02:05:38.140Z,6.28
2019-03-09T02:06:11.605Z,6.00
2019-03-09T02:06:45.161Z,6.55
2019-03-09T02:07:18.845Z,7.33
2019-03-09T02:07:52.321Z,5.62
2019-03-09T02:08:25.729Z,5.87
2019-03-09T02:08:59.182Z,6.20
2019-03-09T02:09:32.631Z,6.15
2019-03-09T02:10:07.089Z,6.15
2019-03-09T02:10:40.584Z,6.75
2019-03-09T02:11:13.981Z,5.95
2019-03-09T02:11:47.461Z,5.90
2019-03-09T02:12:21.239Z,6.72
2019-03-09T02:12:54.734Z,6.28
2019-03-09T02:13:28.198Z,6.40
2019-03-09T02:14:01.717Z,5.78
2019-03-09T02:14:35.172Z,6.25
2019-03-09T02:15:08.929Z,6.20
2019-03-09T02:15:42.429Z,6.35
2019-03-09T02:16:15.890Z,5.95
2019-03-09T02:16:49.344Z,6.42
2019-03-09T02:17:22.849Z,6.42
2019-03-09T02:17:56.292Z,6.25
2019-03-09T02:18:29.755Z,7.10
2019-03-09T02:19:03.195Z,6.03
2019-03-09T02:19:36.648Z,6.08
2019-03-09T02:20:10.699Z,6.40
2019-03-09T02:20:44.152Z,6.42
2019-03-09T02:21:17.619Z,6.45
2019-03-09T02:21:51.084Z,5.90
2019-03-09T02:22:24.574Z,6.45
2019-03-09T02:22:58.041Z,6.90
2019-03-09T02:23:31.529Z,5.80
2019-03-09T02:24:05.007Z,6.50
2019-03-09T02:24:38.445Z,6.50
2019-03-09T02:25:12.128Z,6.55
2019-03-09T02:25:45.616Z,6.67
2019-03-09T02:26:19.093Z,6.00
2019-03-09T02:26:52.476Z,6.55
2019-03-09T02:27:25.940Z,6.00
2019-03-09T02:27:59.384Z,7.62
2019-03-09T02:28:32.837Z,6.08
2019-03-09T02:29:06.312Z,6.50
2019-03-09T02:29:39.757Z,5.90
2019-03-09T02:30:13.329Z,6.03
2019-03-09T02:30:46.846Z,5.72
2019-03-09T02:31:20.383Z,6.55
2019-03-09T02:31:53.853Z,5.92
2019-03-09T02:32:27.361Z,6.12
2019-03-09T02:33:00.753Z,6.00
2019-03-09T02:33:34.294Z,5.95
2019-03-09T02:34:07.925Z,6.70
2019-03-09T02:34:41.421Z,5.65
2019-03-09T02:35:14.873Z,6.50
2019-03-09T02:35:48.257Z,5.85
2019-03-09T02:36:21.731Z,6.05
2019-03-09T02:36:55.185Z,6.70
2019-03-09T02:37:28.661Z,6.30
2019-03-09T02:38:09.136Z,6.35
2019-03-09T02:38:50.533Z,6.55
2019-03-09T02:39:34.361Z,6.83
2019-03-09T02:40:13.317Z,5.80
2019-03-09T02:40:46.776Z,6.58
2019-03-09T02:41:20.161Z,6.22
2019-03-09T02:41:53.608Z,6.40
2019-03-09T02:42:27.090Z,6.65
2019-03-09T02:43:00.540Z,6.87
2019-03-09T02:43:34.020Z,5.37
2019-03-09T02:44:07.475Z,6.10
2019-03-09T02:44:40.853Z,5.40
2019-03-09T02:45:15.077Z,6.40
2019-03-09T02:45:48.585Z,6.25
2019-03-09T02:46:22.139Z,5.87
2019-03-09T02:46:55.649Z,5.83
2019-03-09T02:47:29.171Z,6.75
2019-03-09T02:48:02.556Z,5.53
2019-03-09T02:48:35.939Z,5.25
2019-03-09T02:49:09.389Z,5.95
2019-03-09T02:49:42.877Z,5.70
2019-03-09T02:50:16.335Z,6.05
2019-03-09T02:50:56.069Z,6.60
2019-03-09T02:51:29.465Z,5.00
2019-03-09T02:52:02.922Z,6.17
2019-03-09T02:52:36.389Z,5.83
2019-03-09T02:53:09.962Z,6.25
2019-03-09T02:53:43.423Z,6.17
2019-03-09T02:54:16.876Z,5.70
2019-03-09T02:54:50.361Z,5.97
2019-03-09T02:55:23.904Z,5.90
2019-03-09T02:55:57.369Z,6.28
2019-03-09T02:56:30.750Z,6.10
2019-03-09T02:57:04.307Z,5.65
2019-03-09T02:57:37.761Z,5.22
2019-03-09T02:58:11.414Z,5.25
2019-03-09T02:58:44.890Z,6.90
2019-03-09T02:59:18.400Z,5.60
2019-03-09T02:59:52.789Z,5.33
2019-03-09T03:00:27.919Z,5.12
2019-03-09T03:01:26.530Z,6.00
2019-03-09T03:02:19.148Z,5.53
2019-03-09T03:02:55.745Z,5.80
2019-03-09T03:03:48.331Z,4.75
2019-03-09T03:04:22.005Z,5.67
2019-03-09T03:04:55.499Z,5.17
2019-03-09T03:05:29.049Z,5.80
2019-03-09T03:06:02.503Z,5.30
2019-03-09T03:06:35.975Z,5.05
2019-03-09T03:07:09.484Z,5.47
2019-03-09T03:07:43.034Z,5.22
2019-03-09T03:08:16.838Z,5.35
2019-03-09T03:08:50.554Z,5.30
2019-03-09T03:09:24.011Z,4.92
2019-03-09T03:09:57.653Z,5.60
2019-03-09T03:10:31.033Z,5.67
2019-03-09T03:11:04.504Z,5.12
2019-03-09T03:11:38.024Z,5.78
2019-03-09T03:12:11.480Z,4.72
2019-03-09T03:12:44.981Z,5.67
2019-03-09T03:13:18.542Z,4.95
2019-03-09T03:13:51.996Z,5.00
2019-03-09T03:14:25.476Z,5.05
2019-03-09T03:14:58.940Z,4.90
2019-03-09T03:15:33.220Z,5.17
2019-03-09T03:16:25.793Z,5.42
2019-03-09T03:16:59.281Z,4.75
2019-03-09T03:17:32.674Z,5.92
2019-03-09T03:18:06.189Z,5.30
2019-03-09T03:18:39.673Z,5.30
2019-03-09T03:19:13.125Z,5.67
2019-03-09T03:19:46.592Z,5.55
2019-03-09T03:20:20.070Z,5.50
2019-03-09T03:20:53.477Z,5.37
2019-03-09T03:21:27.074Z,5.33
2019-03-09T03:22:00.541Z,5.53
2019-03-09T03:22:33.931Z,5.33
2019-03-09T03:23:07.324Z,5.12
2019-03-09T03:23:40.816Z,5.40
2019-03-09T03:24:14.206Z,5.40
2019-03-09T03:24:47.604Z,6.10
2019-03-09T03:25:21.092Z,4.65
2019-03-09T03:25:54.564Z,5.45
2019-03-09T03:26:28.013Z,5.08
2019-03-09T03:27:01.488Z,5.15
2019-03-09T03:27:35.127Z,4.75
2019-03-09T03:28:08.576Z,5.85
2019-03-09T03:28:41.993Z,4.92
2019-03-09T03:29:15.444Z,5.35
2019-03-09T03:29:48.902Z,4.65
2019-03-09T03:30:22.389Z,4.72
2019-03-09T03:30:55.874Z,5.10
2019-03-09T03:31:29.385Z,4.28
2019-03-09T03:32:02.875Z,5.20
2019-03-09T03:32:36.861Z,5.25
2019-03-09T03:33:10.327Z,6.50
2019-03-09T03:33:44.005Z,5.70
2019-03-09T03:34:17.474Z,4.95
2019-03-09T03:34:50.937Z,5.28
2019-03-09T03:35:24.449Z,4.72
2019-03-09T03:35:57.917Z,5.62
2019-03-09T03:36:31.399Z,5.25
2019-03-09T03:37:04.873Z,5.87
2019-03-09T03:37:38.322Z,4.70
2019-03-09T03:38:11.771Z,5.30
2019-03-09T03:38:45.169Z,5.17
2019-03-09T03:39:18.638Z,5.08
2019-03-09T03:39:52.106Z,5.00
2019-03-09T03:40:25.564Z,5.10
2019-03-09T03:40:59.042Z,5.47
2019-03-09T03:41:32.421Z,4.33
2019-03-09T03:42:05.830Z,5.08
2019-03-09T03:42:42.037Z,5.10
2019-03-09T03:43:16.300Z,5.40
2019-03-09T03:43:49.992Z,5.08
2019-03-09T03:44:23.467Z,4.90
2019-03-09T03:44:56.936Z,5.12
2019-03-09T03:45:30.442Z,4.70
2019-03-09T03:46:03.901Z,5.55
2019-03-09T03:46:37.470Z,5.20
2019-03-09T03:47:10.929Z,4.67
2019-03-09T03:47:44.389Z,5.70
2019-03-09T03:48:17.853Z,5.40
2019-03-09T03:48:51.332Z,5.37
2019-03-09T03:49:25.568Z,4.95
2019-03-09T03:49:58.953Z,4.72
2019-03-09T03:50:32.348Z,4.92
2019-03-09T03:51:05.823Z,5.10
2019-03-09T03:51:39.284Z,5.53
2019-03-09T03:52:12.745Z,5.12
2019-03-09T03:52:46.202Z,5.25
2019-03-09T03:53:19.593Z,4.58
2019-03-09T03:53:53.414Z,5.00
2019-03-09T03:54:26.875Z,4.70
2019-03-09T03:55:00.558Z,5.10
2019-03-09T03:55:34.072Z,5.55
2019-03-09T03:56:07.538Z,4.92
2019-03-09T03:56:40.990Z,4.85
2019-03-09T03:57:14.394Z,4.62
2019-03-09T03:57:47.864Z,4.50
2019-03-09T03:58:21.414Z,5.92
2019-03-09T03:58:54.913Z,5.12
2019-03-09T03:59:28.442Z,5.50
2019-03-09T04:00:01.851Z,4.58
2019-03-09T04:00:35.441Z,5.58
2019-03-09T04:01:08.905Z,5.35
2019-03-09T04:01:42.380Z,4.78
2019-03-09T04:02:15.829Z,4.70
2019-03-09T04:02:49.296Z,4.25
2019-03-09T04:03:22.755Z,5.37
2019-03-09T04:03:56.288Z,5.33
2019-03-09T04:04:29.793Z,5.50
2019-03-09T04:05:03.270Z,6.12
2019-03-09T04:05:36.724Z,5.78
2019-03-09T04:06:10.214Z,4.70
2019-03-09T04:06:43.596Z,5.42
2019-03-09T04:07:17.272Z,4.92
2019-03-09T04:07:50.725Z,5.28
2019-03-09T04:08:24.193Z,5.85
2019-03-09T04:08:57.698Z,5.47
2019-03-09T04:09:31.108Z,5.22
2019-03-09T04:10:04.797Z,5.17
2019-03-09T04:10:38.457Z,5.53
2019-03-09T04:11:11.926Z,4.95
2019-03-09T04:11:45.557Z,5.60
2019-03-09T04:12:19.166Z,5.75
2019-03-09T04:12:52.651Z,5.25
2019-03-09T04:13:26.205Z,5.62
2019-03-09T04:13:59.693Z,5.45
2019-03-09T04:14:33.077Z,5.60
2019-03-09T04:15:06.589Z,6.03
2019-03-09T04:15:40.042Z,5.78
2019-03-09T04:16:13.489Z,4.90
2019-03-09T04:16:47.027Z,5.65
2019-03-09T04:17:20.473Z,4.72
2019-03-09T04:17:55.002Z,5.95
2019-03-09T04:18:28.495Z,5.08
2019-03-09T04:19:02.006Z,5.80
2019-03-09T04:19:35.474Z,5.37
2019-03-09T04:20:09.084Z,5.10
2019-03-09T04:20:42.555Z,4.87
2019-03-09T04:21:16.025Z,5.05
2019-03-09T04:21:49.411Z,4.62
2019-03-09T04:22:22.890Z,5.03
2019-03-09T04:22:56.400Z,5.17
2019-03-09T04:23:29.860Z,5.15
2019-03-09T04:24:03.358Z,5.30
2019-03-09T04:24:38.834Z,5.50
2019-03-09T04:25:12.485Z,4.95
2019-03-09T04:25:45.897Z,4.92
2019-03-09T04:26:19.413Z,5.25
2019-03-09T04:26:52.886Z,4.87
2019-03-09T04:27:26.345Z,5.17
2019-03-09T04:27:59.810Z,5.30
2019-03-09T04:28:33.259Z,4.83
2019-03-09T04:29:07.698Z,4.92
2019-03-09T04:29:41.164Z,4.60
2019-03-09T04:30:14.750Z,5.92
2019-03-09T04:30:48.211Z,5.50
2019-03-09T04:31:21.703Z,4.95
2019-03-09T04:31:55.159Z,4.35
2019-03-09T04:32:28.606Z,5.12
2019-03-09T04:33:02.089Z,5.03
2019-03-09T04:33:35.542Z,5.33
2019-03-09T04:34:09.013Z,4.47
2019-03-09T04:34:42.463Z,5.62
2019-03-09T04:35:15.948Z,5.95
2019-03-09T04:35:49.397Z,5.00
2019-03-09T04:36:22.859Z,4.85
2019-03-09T04:37:00.299Z,5.20
2019-03-09T04:37:33.833Z,4.72
2019-03-09T04:38:07.306Z,4.78
2019-03-09T04:38:40.708Z,4.83
2019-03-09T04:39:14.181Z,5.25
2019-03-09T04:39:47.661Z,5.20
2019-03-09T04:40:21.126Z,6.55
2019-03-09T04:40:54.606Z,4.97
2019-03-09T04:41:28.073Z,5.40
2019-03-09T04:42:01.529Z,5.08
2019-03-09T04:42:34.999Z,5.10
2019-03-09T04:43:08.460Z,4.42
2019-03-09T04:43:41.863Z,5.08
2019-03-09T04:44:15.797Z,5.37
2019-03-09T04:44:49.257Z,5.10
2019-03-09T04:45:22.727Z,4.65
2019-03-09T04:45:56.122Z,5.20
2019-03-09T04:46:29.770Z,4.60
2019-03-09T04:47:03.244Z,4.40
2019-03-09T04:47:36.709Z,5.15
2019-03-09T04:48:10.163Z,5.72
2019-03-09T04:48:43.636Z,5.58
2019-03-09T04:49:17.080Z,4.78
2019-03-09T04:49:50.837Z,4.30
2019-03-09T04:50:24.884Z,4.85
2019-03-09T04:50:58.274Z,5.78
2019-03-09T04:51:31.824Z,5.00
2019-03-09T04:52:05.353Z,5.55
2019-03-09T04:52:38.801Z,4.90
2019-03-09T04:53:12.256Z,5.10
2019-03-09T04:53:45.741Z,5.35
2019-03-09T04:54:19.318Z,5.22
2019-03-09T04:54:52.785Z,5.67
2019-03-09T04:55:26.244Z,4.92
2019-03-09T04:55:59.709Z,4.72
2019-03-09T04:56:33.302Z,5.37
2019-03-09T04:57:06.678Z,4.50
2019-03-09T04:57:40.137Z,5.10
2019-03-09T04:58:13.604Z,5.30
2019-03-09T04:58:47.110Z,5.12
2019-03-09T04:59:20.581Z,5.15
2019-03-09T04:59:54.085Z,6.00
2019-03-09T05:00:27.564Z,5.45
2019-03-09T05:01:01.029Z,4.55
2019-03-09T05:01:34.487Z,4.80
2019-03-09T05:02:07.957Z,5.37
2019-03-09T05:02:41.490Z,5.25
2019-03-09T05:03:14.949Z,5.35
2019-03-09T05:03:55.685Z,4.90
2019-03-09T05:04:48.332Z,5.55
2019-03-09T05:05:21.794Z,5.30
2019-03-09T05:05:55.266Z,4.87
2019-03-09T05:06:28.909Z,5.05
2019-03-09T05:07:02.297Z,4.80
2019-03-09T05:07:37.184Z,6.22
2019-03-09T05:08:12.507Z,5.60
2019-03-09T05:08:57.949Z,5.15
2019-03-09T05:09:43.552Z,5.62
2019-03-09T05:10:31.638Z,5.35
2019-03-09T05:11:12.908Z,5.47
2019-03-09T05:11:46.394Z,4.75
2019-03-09T05:12:19.772Z,5.62
2019-03-09T05:12:54.719Z,4.95
2019-03-09T05:13:30.021Z,4.70
2019-03-09T05:14:08.392Z,5.30
2019-03-09T05:14:41.875Z,6.30
2019-03-09T05:15:15.336Z,5.62
2019-03-09T05:15:48.840Z,7.95
2019-03-09T05:16:22.395Z,8.08
2019-03-09T05:16:55.863Z,6.72
2019-03-09T05:17:29.339Z,5.35
2019-03-09T05:18:02.799Z,6.47
2019-03-09T05:18:36.281Z,6.12
2019-03-09T05:19:09.740Z,5.85
2019-03-09T05:19:43.878Z,5.72
2019-03-09T05:20:17.252Z,5.22
2019-03-09T05:20:50.709Z,4.62
2019-03-09T05:21:24.166Z,6.22
2019-03-09T05:21:57.689Z,6.40
2019-03-09T05:22:31.252Z,5.70
2019-03-09T05:23:04.726Z,5.37
2019-03-09T05:23:38.183Z,5.28
2019-03-09T05:24:56.765Z,6.53
2019-03-09T05:25:30.252Z,5.03
2019-03-09T05:26:03.725Z,5.37
2019-03-09T05:26:37.100Z,5.80
2019-03-09T05:27:10.560Z,5.15
2019-03-09T05:27:43.944Z,4.80
2019-03-09T05:28:17.396Z,5.80
2019-03-09T05:28:50.782Z,5.65
2019-03-09T05:29:24.309Z,5.90
2019-03-09T05:29:57.937Z,5.40
2019-03-09T05:30:38.006Z,6.10
2019-03-09T05:31:11.380Z,5.42
2019-03-09T05:31:44.836Z,5.87
2019-03-09T05:32:18.290Z,5.92
2019-03-09T05:32:51.796Z,5.50
2019-03-09T05:33:25.217Z,5.10
2019-03-09T05:33:58.656Z,6.33
2019-03-09T05:34:32.047Z,5.03
2019-03-09T05:35:06.272Z,5.08
2019-03-09T05:35:39.738Z,4.92
2019-03-09T05:36:13.120Z,5.22
2019-03-09T05:36:46.580Z,5.35
2019-03-09T05:37:20.080Z,5.20
2019-03-09T05:37:53.469Z,5.30
2019-03-09T05:38:26.938Z,6.35
2019-03-09T05:39:00.424Z,5.58
2019-03-09T05:39:33.886Z,5.55
2019-03-09T05:40:07.599Z,5.53
2019-03-09T05:40:41.206Z,5.90
2019-03-09T05:41:14.606Z,6.12
2019-03-09T05:41:48.009Z,5.33
2019-03-09T05:42:21.472Z,4.60
2019-03-09T05:42:54.890Z,5.12
2019-03-09T05:43:28.283Z,5.58
2019-03-09T05:44:01.729Z,6.00
2019-03-09T05:44:35.208Z,5.47
2019-03-09T05:45:08.661Z,5.30
2019-03-09T05:45:42.143Z,6.12
2019-03-09T05:46:15.604Z,4.92
2019-03-09T05:46:49.064Z,6.30
2019-03-09T05:47:22.537Z,5.22
2019-03-09T05:47:56.015Z,5.75
2019-03-09T05:48:29.460Z,5.85
2019-03-09T05:49:02.921Z,5.70
2019-03-09T05:49:36.317Z,5.83
2019-03-09T05:50:09.859Z,6.50
2019-03-09T05:50:44.358Z,6.25
2019-03-09T05:51:18.053Z,5.15
2019-03-09T05:52:09.290Z,5.28
2019-03-09T05:52:42.675Z,6.12
2019-03-09T05:53:17.198Z,5.60
2019-03-09T05:53:50.585Z,6.90
2019-03-09T05:54:23.986Z,5.28
2019-03-09T05:54:57.869Z,6.17
2019-03-09T05:55:31.332Z,6.05
2019-03-09T05:56:05.541Z,6.37
2019-03-09T05:56:39.008Z,6.58
2019-03-09T05:57:12.467Z,5.45
2019-03-09T05:57:45.972Z,6.45
2019-03-09T05:58:19.349Z,6.10
2019-03-09T05:58:52.840Z,5.72
2019-03-09T05:59:26.305Z,6.10
2019-03-09T05:59:59.786Z,5.75
2019-03-09T06:00:34.116Z,5.33
2019-03-09T06:01:07.607Z,5.70
2019-03-09T06:01:41.043Z,5.92
2019-03-09T06:02:14.509Z,6.25
2019-03-09T06:02:47.968Z,6.20
2019-03-09T06:03:21.377Z,6.40
2019-03-09T06:03:55.004Z,5.22
2019-03-09T06:04:28.598Z,6.25
2019-03-09T06:05:02.001Z,6.00
2019-03-09T06:05:57.652Z,6.47
2019-03-09T06:06:31.068Z,5.65
2019-03-09T06:07:04.523Z,5.85
2019-03-09T06:07:37.900Z,5.33
2019-03-09T06:08:11.355Z,6.35
2019-03-09T06:08:45.037Z,5.72
2019-03-09T06:09:18.502Z,6.00
2019-03-09T06:09:51.958Z,5.40
2019-03-09T06:10:25.425Z,5.83
2019-03-09T06:10:58.896Z,5.87
2019-03-09T06:11:33.343Z,5.58
2019-03-09T06:12:06.923Z,5.80
2019-03-09T06:12:40.315Z,6.28
2019-03-09T06:13:13.768Z,5.90
2019-03-09T06:13:47.242Z,6.00
2019-03-09T06:14:20.807Z,5.12
2019-03-09T06:14:54.196Z,5.75
2019-03-09T06:15:27.661Z,5.90
2019-03-09T06:16:01.164Z,6.30
2019-03-09T06:16:34.617Z,6.08
2019-03-09T06:17:08.076Z,6.25
2019-03-09T06:17:41.543Z,6.42
2019-03-09T06:18:14.949Z,5.40
2019-03-09T06:18:48.409Z,5.10
2019-03-09T06:19:21.908Z,6.78
2019-03-09T06:19:55.374Z,7.10
2019-03-09T06:20:28.841Z,5.90
2019-03-09T06:21:02.300Z,6.33
2019-03-09T06:21:35.796Z,5.90
2019-03-09T06:22:09.193Z,4.80
2019-03-09T06:22:42.669Z,5.87
2019-03-09T06:23:16.145Z,5.50
2019-03-09T06:23:49.780Z,5.70
2019-03-09T06:24:23.262Z,5.47
2019-03-09T06:24:56.722Z,5.67
2019-03-09T06:25:30.229Z,6.00
2019-03-09T06:26:03.814Z,5.33
2019-03-09T06:26:37.314Z,5.40
2019-03-09T06:27:10.776Z,5.72
2019-03-09T06:27:44.243Z,5.75
2019-03-09T06:28:17.690Z,5.50
2019-03-09T06:28:51.071Z,5.80
2019-03-09T06:29:24.665Z,5.62
2019-03-09T06:29:58.113Z,5.60
2019-03-09T06:30:31.586Z,5.60
2019-03-09T06:31:05.052Z,5.83
2019-03-09T06:31:38.476Z,5.20
2019-03-09T06:32:29.714Z,5.15
2019-03-09T06:33:16.148Z,5.33
2019-03-09T06:33:50.653Z,5.03
2019-03-09T06:34:24.036Z,5.90
2019-03-09T06:34:57.441Z,6.10
2019-03-09T06:35:30.955Z,5.33
2019-03-09T06:36:26.588Z,5.67
2019-03-09T06:37:06.337Z,4.30
2019-03-09T06:37:39.920Z,6.55
2019-03-09T06:38:31.298Z,5.25
2019-03-09T06:39:09.217Z,5.05
2019-03-09T06:39:43.858Z,5.87
2019-03-09T06:40:17.325Z,4.90
2019-03-09T06:40:50.869Z,4.75
2019-03-09T06:41:26.359Z,4.80
2019-03-09T06:42:30.745Z,4.70
2019-03-09T06:43:04.192Z,4.33
2019-03-09T06:43:37.659Z,4.12
2019-03-09T06:44:11.058Z,4.75
2019-03-09T06:44:44.521Z,4.65
2019-03-09T06:45:18.471Z,4.42
2019-03-09T06:45:51.936Z,4.65
2019-03-09T06:46:25.408Z,5.00
2019-03-09T06:46:59.120Z,4.87
2019-03-09T06:47:33.481Z,4.60
2019-03-09T06:48:06.952Z,4.53
2019-03-09T06:48:40.361Z,5.15
2019-03-09T06:49:13.823Z,4.95
2019-03-09T06:49:47.292Z,4.58
2019-03-09T06:50:21.078Z,4.28
2019-03-09T06:50:54.459Z,4.65
2019-03-09T06:51:27.926Z,4.90
2019-03-09T06:52:01.324Z,4.47
2019-03-09T06:52:34.719Z,4.65
2019-03-09T06:53:08.196Z,4.25
2019-03-09T06:53:41.665Z,5.20
2019-03-09T06:54:15.158Z,4.17
2019-03-09T06:54:48.789Z,4.20
2019-03-09T06:55:22.334Z,4.20
2019-03-09T06:55:55.721Z,3.90
2019-03-09T06:56:29.179Z,4.67
2019-03-09T06:57:02.660Z,4.75
2019-03-09T06:57:36.269Z,3.95
2019-03-09T06:58:09.669Z,4.03
2019-03-09T06:58:43.129Z,3.90
2019-03-09T06:59:16.584Z,5.05
2019-03-09T06:59:50.049Z,4.05
2019-03-09T07:00:36.608Z,3.90
2019-03-09T07:01:17.157Z,4.42
2019-03-09T07:01:50.621Z,4.15
2019-03-09T07:02:24.262Z,4.33
2019-03-09T07:02:57.732Z,4.22
2019-03-09T07:03:31.202Z,4.17
2019-03-09T07:04:04.674Z,4.35
2019-03-09T07:04:38.142Z,4.20
2019-03-09T07:05:11.598Z,4.90
2019-03-09T07:05:45.057Z,4.40
2019-03-09T07:06:18.524Z,3.83
2019-03-09T07:06:51.985Z,4.20
2019-03-09T07:07:25.465Z,4.10
2019-03-09T07:07:58.933Z,3.52
2019-03-09T07:08:32.310Z,3.85
2019-03-09T07:09:06.169Z,3.70
2019-03-09T07:09:39.641Z,4.33
2019-03-09T07:10:13.177Z,3.95
2019-03-09T07:10:46.642Z,4.62
2019-03-09T07:11:20.102Z,3.85
2019-03-09T07:11:53.557Z,4.35
2019-03-09T07:12:27.044Z,4.50
2019-03-09T07:13:00.523Z,3.83
2019-03-09T07:13:33.911Z,4.62
2019-03-09T07:14:24.958Z,3.30
2019-03-09T07:15:20.612Z,4.33
2019-03-09T07:15:54.068Z,4.10
2019-03-09T07:16:27.521Z,3.85
2019-03-09T07:17:00.912Z,4.10
2019-03-09T07:17:34.737Z,4.40
2019-03-09T07:18:12.630Z,3.87
2019-03-09T07:18:46.075Z,3.80
2019-03-09T07:19:19.450Z,3.92
2019-03-09T07:19:52.913Z,3.95
2019-03-09T07:20:26.436Z,3.30
2019-03-09T07:20:59.897Z,4.05
2019-03-09T07:21:33.366Z,4.20
2019-03-09T07:22:06.830Z,4.45
2019-03-09T07:22:40.293Z,3.75
2019-03-09T07:23:13.781Z,4.35
2019-03-09T07:23:47.313Z,4.40
2019-03-09T07:24:20.783Z,3.72
2019-03-09T07:24:54.893Z,4.35
2019-03-09T07:25:28.352Z,4.20
2019-03-09T07:26:01.835Z,3.90
2019-03-09T07:26:35.308Z,3.55
2019-03-09T07:27:08.790Z,3.80
2019-03-09T07:27:42.273Z,4.15
2019-03-09T07:28:16.103Z,3.83
2019-03-09T07:28:49.602Z,5.28
2019-03-09T07:29:23.076Z,4.08
2019-03-09T07:29:56.546Z,3.72
2019-03-09T07:30:30.009Z,3.98
2019-03-09T07:31:03.489Z,4.40
2019-03-09T07:31:36.941Z,4.03
2019-03-09T07:32:10.403Z,3.95
2019-03-09T07:32:43.820Z,4.62
2019-03-09T07:33:17.285Z,3.95
2019-03-09T07:34:05.952Z,3.37
2019-03-09T07:34:39.443Z,4.20
2019-03-09T07:35:13.113Z,3.95
2019-03-09T07:35:46.742Z,3.55
2019-03-09T07:36:20.521Z,3.80
2019-03-09T07:36:54.038Z,3.62
2019-03-09T07:37:27.541Z,3.62
2019-03-09T07:38:01.057Z,3.40